createdAt,value
2023-04-30T00:02:43.878Z,63.42
2023-04-30T00:06:45.719Z,63.60
2023-04-30T00:10:50.104Z,67.93
2023-04-30T00:14:51.851Z,62.47
2023-04-30T00:18:53.537Z,60.67
2023-04-30T00:22:55.873Z,67.20
2023-04-30T00:26:57.569Z,64.50
2023-04-30T00:31:00.353Z,68.53
2023-04-30T00:35:02.242Z,63.83
2023-04-30T00:39:04.082Z,63.72
2023-04-30T00:43:05.947Z,60.67
2023-04-30T00:47:07.667Z,63.75
2023-04-30T00:51:09.459Z,64.22
2023-04-30T00:55:14.374Z,66.57
2023-04-30T00:59:16.662Z,65.32
2023-04-30T01:03:18.859Z,66.60
2023-04-30T01:07:21.059Z,63.47
2023-04-30T01:11:29.826Z,67.65
2023-04-30T01:16:25.026Z,59.22
2023-04-30T01:20:29.600Z,64.07
2023-04-30T01:24:43.713Z,60.05
2023-04-30T01:28:46.382Z,60.25
2023-04-30T01:32:48.261Z,56.05
2023-04-30T01:37:02.398Z,55.53
2023-04-30T01:41:37.444Z,51.92
2023-04-30T01:46:04.566Z,48.53
2023-04-30T01:50:42.342Z,57.17
2023-04-30T01:54:59.013Z,59.45
2023-04-30T01:59:01.527Z,57.47
2023-04-30T02:03:03.440Z,61.92
2023-04-30T02:07:05.333Z,57.95
2023-04-30T02:11:09.728Z,56.38
2023-04-30T02:15:11.949Z,54.13
2023-04-30T02:19:13.683Z,48.43
2023-04-30T02:23:16.031Z,52.00
2023-04-30T02:27:18.296Z,51.40
2023-04-30T02:31:20.192Z,50.53
2023-04-30T02:35:21.834Z,49.83
2023-04-30T02:39:23.453Z,48.17
2023-04-30T02:43:25.285Z,49.63
2023-04-30T02:47:26.961Z,55.25
2023-04-30T02:51:28.818Z,55.20
2023-04-30T02:55:31.154Z,59.95
2023-04-30T02:59:32.821Z,55.27
2023-04-30T03:03:34.554Z,77.97
2023-04-30T03:07:36.440Z,57.17
2023-04-30T03:11:38.179Z,61.00
2023-04-30T03:15:39.878Z,51.08
2023-04-30T03:19:41.708Z,57.00
2023-04-30T03:23:43.530Z,62.83
2023-04-30T03:27:45.215Z,59.50
2023-04-30T03:31:46.920Z,56.95
2023-04-30T03:35:50.410Z,52.08
2023-04-30T03:39:52.406Z,50.20
2023-04-30T03:43:54.686Z,64.82
2023-04-30T03:47:56.466Z,56.08
2023-04-30T03:51:58.286Z,48.90
2023-04-30T03:56:00.373Z,52.97
2023-04-30T04:00:04.594Z,54.42
2023-04-30T04:04:06.536Z,51.33
2023-04-30T04:08:08.589Z,52.75
2023-04-30T04:12:10.624Z,61.60
2023-04-30T04:16:12.362Z,52.10
2023-04-30T04:20:14.481Z,58.78
2023-04-30T04:24:16.098Z,59.25
2023-04-30T04:28:17.913Z,65.95
2023-04-30T04:32:19.598Z,57.72
2023-04-30T04:36:21.525Z,54.47
2023-04-30T04:40:23.243Z,52.63
2023-04-30T04:44:24.947Z,54.42
2023-04-30T04:48:26.767Z,51.33
2023-04-30T04:52:28.524Z,54.88
2023-04-30T04:56:30.364Z,58.95
2023-04-30T05:00:32.968Z,60.00
2023-04-30T05:04:34.662Z,56.45
2023-04-30T05:08:36.349Z,55.45
2023-04-30T05:12:38.348Z,54.22
2023-04-30T05:16:40.392Z,57.58
2023-04-30T05:20:44.259Z,59.65
2023-04-30T05:24:46.244Z,64.55
2023-04-30T05:28:48.189Z,54.67
2023-04-30T05:32:52.554Z,55.30
2023-04-30T05:36:54.494Z,49.55
2023-04-30T05:40:56.372Z,56.22
2023-04-30T05:44:58.372Z,53.13
2023-04-30T05:49:00.148Z,45.47
2023-04-30T05:53:02.126Z,43.80
2023-04-30T05:57:04.177Z,52.85
2023-04-30T06:01:06.147Z,57.20
2023-04-30T06:05:08.926Z,60.35
2023-04-30T06:09:10.749Z,59.25
2023-04-30T06:13:12.436Z,57.50
2023-04-30T06:17:14.223Z,63.58
2023-04-30T06:21:16.011Z,60.67
2023-04-30T06:25:17.649Z,60.28
2023-04-30T06:29:19.289Z,58.20
2023-04-30T06:33:21.661Z,60.83
2023-04-30T06:37:23.737Z,69.60
2023-04-30T06:41:25.578Z,55.08
2023-04-30T06:45:27.326Z,52.67
2023-04-30T06:49:29.130Z,60.90
2023-04-30T06:53:30.852Z,65.25
2023-04-30T06:57:32.521Z,61.95
2023-04-30T07:01:34.171Z,56.20
2023-04-30T07:05:35.889Z,58.97
2023-04-30T07:09:37.641Z,60.67
2023-04-30T07:13:39.317Z,67.10
2023-04-30T07:17:42.261Z,67.40
2023-04-30T07:21:43.929Z,67.55
2023-04-30T07:25:45.683Z,62.30
2023-04-30T07:29:47.400Z,74.07
2023-04-30T07:33:50.530Z,65.00
2023-04-30T07:41:53.883Z,61.55
2023-04-30T07:45:55.568Z,56.83
2023-04-30T07:49:57.360Z,59.08
2023-04-30T07:53:59.244Z,53.15
2023-04-30T07:58:02.480Z,51.63
2023-04-30T08:02:04.313Z,43.30
2023-04-30T08:06:07.084Z,51.38
2023-04-30T08:10:09.170Z,65.78
2023-04-30T08:14:11.068Z,53.72
2023-04-30T08:18:12.770Z,55.50
2023-04-30T08:22:14.455Z,40.38
2023-04-30T08:26:16.219Z,40.40
2023-04-30T08:30:17.947Z,50.22
2023-04-30T08:34:19.691Z,43.97
2023-04-30T08:38:21.417Z,38.35
2023-04-30T08:42:29.916Z,35.08
2023-04-30T08:46:35.567Z,32.70
2023-04-30T08:50:37.666Z,28.95
2023-04-30T08:54:39.661Z,13.07
2023-04-30T08:58:41.473Z,19.20
2023-04-30T09:02:43.955Z,12.63
2023-04-30T09:06:46.204Z,16.88
2023-04-30T09:10:48.055Z,13.80
2023-04-30T09:15:04.857Z,15.02
2023-04-30T09:19:06.790Z,12.48
2023-04-30T09:23:10.777Z,16.17
2023-04-30T09:27:20.024Z,8.48
2023-04-30T09:31:22.073Z,6.65
2023-04-30T09:35:44.475Z,8.93
2023-04-30T09:39:54.540Z,16.33
2023-04-30T09:43:57.415Z,9.48
2023-04-30T09:48:09.182Z,16.65
2023-04-30T09:52:18.812Z,7.70
2023-04-30T09:56:23.172Z,14.73
2023-04-30T10:00:25.287Z,10.88
2023-04-30T10:04:33.369Z,8.27
2023-04-30T10:08:42.293Z,10.85
2023-04-30T10:12:50.302Z,6.78
2023-04-30T10:16:57.833Z,9.93
2023-04-30T10:21:02.938Z,10.20
2023-04-30T10:25:05.322Z,7.72
2023-04-30T10:29:07.685Z,14.73
2023-04-30T10:33:34.431Z,11.80
2023-04-30T10:37:46.199Z,10.32
2023-04-30T10:41:49.425Z,11.10
2023-04-30T10:45:51.396Z,10.98
2023-04-30T10:49:53.540Z,11.13
2023-04-30T10:53:56.206Z,13.48
2023-04-30T10:58:01.119Z,12.82
2023-04-30T11:02:03.351Z,7.55
2023-04-30T11:06:22.446Z,7.60
2023-04-30T11:10:26.385Z,8.35
2023-04-30T11:14:31.534Z,7.85
2023-04-30T11:18:33.483Z,6.63
2023-04-30T11:22:37.926Z,9.77
2023-04-30T11:27:08.431Z,5.78
2023-04-30T11:31:10.553Z,5.22
2023-04-30T11:35:12.737Z,7.07
2023-04-30T11:39:15.098Z,4.10
2023-04-30T11:43:33.366Z,7.68
2023-04-30T11:47:42.418Z,4.05
2023-04-30T11:51:49.158Z,6.80
2023-04-30T11:55:52.652Z,3.13
2023-04-30T11:59:54.920Z,3.78
2023-04-30T12:03:57.588Z,2.45
2023-04-30T12:08:06.497Z,4.05
2023-04-30T12:12:08.124Z,6.22
2023-04-30T12:16:09.871Z,5.00
2023-04-30T12:20:13.177Z,2.08
2023-04-30T12:24:16.720Z,2.00
2023-04-30T12:28:18.771Z,2.45
2023-04-30T12:32:22.751Z,8.13
2023-04-30T12:36:31.617Z,7.57
2023-04-30T12:40:33.764Z,6.63
2023-04-30T12:44:47.296Z,4.60
2023-04-30T12:48:49.162Z,6.78
2023-04-30T12:52:51.255Z,1.40
2023-04-30T12:57:08.455Z,3.40
2023-04-30T13:01:15.147Z,1.48
2023-04-30T13:05:17.062Z,5.13
2023-04-30T13:09:19.013Z,2.93
2023-04-30T13:13:21.254Z,4.83
2023-04-30T13:17:23.321Z,3.03
2023-04-30T13:21:25.151Z,1.90
2023-04-30T13:25:27.015Z,2.20
2023-04-30T13:29:28.767Z,6.87
2023-04-30T13:33:30.511Z,0.98
2023-04-30T13:37:32.285Z,6.35
2023-04-30T13:41:34.062Z,2.28
2023-04-30T13:45:35.950Z,2.23
2023-04-30T13:49:38.077Z,2.22
2023-04-30T13:53:40.419Z,1.10
2023-04-30T13:57:42.204Z,2.17
2023-04-30T14:01:44.400Z,5.57
2023-04-30T14:05:46.620Z,3.90
2023-04-30T14:09:48.512Z,1.17
2023-04-30T14:13:50.276Z,1.43
2023-04-30T14:17:52.943Z,0.77
2023-04-30T14:25:57.299Z,4.22
2023-04-30T14:29:58.989Z,4.05
2023-04-30T14:34:01.118Z,1.85
2023-04-30T14:38:02.785Z,1.00
2023-04-30T14:42:04.825Z,1.88
2023-04-30T14:46:07.000Z,1.02
2023-04-30T14:50:09.462Z,1.15
2023-04-30T14:54:11.173Z,5.22
2023-04-30T14:58:12.859Z,5.53
2023-04-30T15:02:16.838Z,6.32
2023-04-30T15:06:19.215Z,1.52
2023-04-30T15:10:21.072Z,9.40
2023-04-30T15:14:23.220Z,6.83
2023-04-30T15:18:25.152Z,1.85
2023-04-30T15:22:26.982Z,3.10
2023-04-30T15:26:29.206Z,2.80
2023-04-30T15:30:30.944Z,2.63
2023-04-30T15:34:32.673Z,3.25
2023-04-30T15:38:34.821Z,2.93
2023-04-30T15:42:38.336Z,4.90
2023-04-30T15:46:40.404Z,5.40
2023-04-30T15:50:42.420Z,3.83
2023-04-30T15:54:44.313Z,3.33
2023-04-30T15:58:46.166Z,2.87
2023-04-30T16:02:47.874Z,12.23
2023-04-30T16:06:50.054Z,1.20
2023-04-30T16:10:51.965Z,1.90
2023-04-30T16:14:54.458Z,1.23
2023-04-30T16:18:56.167Z,7.00
2023-04-30T16:22:58.359Z,1.88
2023-04-30T16:27:00.138Z,1.17
2023-04-30T16:31:01.843Z,1.27
2023-04-30T16:35:03.902Z,11.38
2023-04-30T16:39:05.900Z,3.25
2023-04-30T16:43:08.057Z,2.50
2023-04-30T16:47:09.767Z,3.10
2023-04-30T16:51:11.572Z,3.17
2023-04-30T16:55:13.343Z,3.17
2023-04-30T16:59:15.028Z,1.03
2023-04-30T17:03:16.765Z,1.48
2023-04-30T17:07:18.903Z,2.40
2023-04-30T17:11:22.257Z,5.85
2023-04-30T17:15:24.045Z,6.25
2023-04-30T17:19:25.840Z,10.80
2023-04-30T17:23:27.863Z,3.33
2023-04-30T17:27:29.542Z,2.92
2023-04-30T17:31:31.301Z,3.25
2023-04-30T17:35:33.906Z,3.40
2023-04-30T17:43:38.116Z,0.87
2023-04-30T17:47:39.865Z,1.77
2023-04-30T17:51:41.532Z,0.73
2023-04-30T17:55:43.181Z,1.08
2023-04-30T17:59:44.946Z,3.10
2023-04-30T18:03:46.684Z,9.47
2023-04-30T18:07:48.650Z,1.57
2023-04-30T18:11:50.500Z,2.60
2023-04-30T18:15:52.158Z,1.87
2023-04-30T18:19:54.786Z,1.60
2023-04-30T18:23:56.628Z,6.70
2023-04-30T18:27:59.557Z,8.68
2023-04-30T18:32:01.804Z,6.32
2023-04-30T18:36:05.993Z,9.43
2023-04-30T18:40:08.404Z,15.82
2023-04-30T18:44:13.879Z,9.57
2023-04-30T18:48:17.125Z,2.92
2023-04-30T18:52:18.755Z,4.18
2023-04-30T18:56:21.979Z,7.18
2023-04-30T19:00:23.622Z,5.50
2023-04-30T19:04:25.432Z,9.88
2023-04-30T19:08:27.275Z,8.23
2023-04-30T19:12:28.978Z,9.77
2023-04-30T19:16:30.745Z,14.25
2023-04-30T19:20:32.374Z,11.27
2023-04-30T19:24:34.050Z,6.65
2023-04-30T19:28:35.776Z,14.02
2023-04-30T19:32:37.446Z,5.35
2023-04-30T19:36:41.393Z,10.50
2023-04-30T19:40:47.894Z,10.93
2023-04-30T19:44:52.946Z,10.00
2023-04-30T19:48:54.714Z,7.18
2023-04-30T19:52:56.376Z,5.13
2023-04-30T19:56:58.141Z,10.63
2023-04-30T20:01:00.436Z,8.70
2023-04-30T20:05:02.081Z,4.78
2023-04-30T20:09:04.098Z,12.07
2023-04-30T20:13:06.961Z,17.40
2023-04-30T20:21:10.464Z,35.97
2023-04-30T20:25:12.191Z,24.52
2023-04-30T20:29:13.886Z,16.73
2023-04-30T20:33:16.356Z,20.42
2023-04-30T20:37:18.056Z,15.20
2023-04-30T20:41:19.856Z,7.55
2023-04-30T20:45:23.111Z,4.88
2023-04-30T20:49:26.972Z,10.02
2023-04-30T20:53:28.675Z,11.75
2023-04-30T20:57:30.307Z,11.73
2023-04-30T21:01:32.011Z,11.30
2023-04-30T21:05:34.235Z,8.43
2023-04-30T21:09:36.899Z,9.53
2023-04-30T21:13:38.655Z,9.18
2023-04-30T21:17:40.527Z,6.20
2023-04-30T21:21:42.197Z,8.38
2023-04-30T21:25:43.852Z,19.70
2023-04-30T21:29:45.882Z,11.57
2023-04-30T21:33:48.130Z,9.03
2023-04-30T21:37:50.081Z,18.50
2023-04-30T21:41:51.820Z,212.70
2023-04-30T21:45:53.725Z,10.85
2023-04-30T21:49:55.626Z,7.68
2023-04-30T21:53:57.514Z,5.70
2023-04-30T21:57:59.181Z,12.18
2023-04-30T22:02:07.351Z,15.13
2023-04-30T22:06:14.956Z,6.90
2023-04-30T22:10:16.852Z,8.65
2023-04-30T22:14:18.546Z,33.30
2023-04-30T22:18:21.178Z,12.88
2023-04-30T22:22:23.161Z,23.25
2023-04-30T22:26:25.567Z,8.10
2023-04-30T22:30:27.292Z,8.82
2023-04-30T22:34:29.306Z,8.82
2023-04-30T22:38:31.438Z,17.70
2023-04-30T22:42:34.065Z,7.10
2023-04-30T22:46:36.725Z,10.23
2023-04-30T22:50:38.817Z,6.57
2023-04-30T22:54:41.172Z,5.78
2023-04-30T22:58:42.757Z,4.75
2023-04-30T23:02:44.394Z,6.03
2023-04-30T23:06:46.411Z,3.60
2023-04-30T23:10:48.083Z,11.05
2023-04-30T23:14:50.866Z,8.65
2023-04-30T23:18:52.566Z,5.80
2023-04-30T23:22:54.243Z,6.75
2023-04-30T23:26:57.686Z,14.98
2023-04-30T23:30:59.391Z,5.25
2023-04-30T23:35:01.026Z,5.82
2023-04-30T23:39:04.498Z,6.15
2023-04-30T23:43:06.217Z,7.15
2023-04-30T23:47:07.827Z,12.68
2023-04-30T23:51:09.692Z,6.20
2023-04-30T23:55:11.459Z,4.97
2023-04-30T23:59:13.873Z,10.25
